Weather at Belmont Airport [CLOSED]

Public forecast

Using degrees Fahrenheit for public forecast. Weather courtesy of forecast.io.

Closest aviation weather report (METAR) to Belmont Airport

Closest report is San Carlos Airport, 1.6 nm (3.0 km) SE.

2024/05/26 07:55 (retrieved 22 minutes ago)

KSQL 260755Z AUTO 25003KT 8SM CLR 11/07 A3007 RMK AO2

Closest aviation forecast (TAF) to Belmont Airport

Closest forecast is San Francisco International Airport, 7.1 nm (13.2 km) NW.

2024/05/26 06:36 (retrieved 2 hours ago)

TAF KSFO 260533Z 2606/2712 27012KT P6SM SCT015 FM260800 26008KT P6SM OVC010 FM261700 28010KT P6SM BKN012 FM262100 29015G20KT P6SM FEW012 FM270800 26010KT P6SM BKN010